FW2619 Weather Reports


Display with metric or nautical units.
time (UTC)temp
F
wind
direction
speed
MPH
gust
MPH
rain 1hr
in
rain 24hr
in
rain mn
in
humidity
%
barometer
mb
20200715193408 74 276 0.0 5.0 0.00 0.05 0.01 59 1015.2
20200715191909 73 281 1.0 5.0 0.00 0.05 0.01 60 1015.3
20200715191407 73 283 3.0 6.0 0.00 0.05 0.01 60 1015.4
20200715190906 73 320 2.0 6.0 0.00 0.05 0.01 60 1015.5
20200715190404 74 350 3.0 6.0 0.00 0.05 0.01 58 1015.6
20200715184906 74 339 2.0 7.0 0.00 0.05 0.01 58 1015.8
20200715184405 74 260 3.0 7.0 0.00 0.05 0.01 59 1015.8
20200715183910 74 299 2.0 8.0 0.00 0.05 0.01 60 1016.0
20200715183407 73 293 3.0 8.0 0.00 0.05 0.01 62 1015.9
20200715181908 72 310 2.0 6.0 0.00 0.05 0.01 65 1016.2
20200715181407 71 309 3.0 7.0 0.00 0.05 0.01 66 1016.3
20200715180905 70 308 2.0 7.0 0.00 0.05 0.01 67 1016.3
20200715180405 70 342 5.0 10.0 0.00 0.05 0.01 67 1016.4
20200715174904 70 341 2.0 5.0 0.00 0.05 0.01 70 1016.4
20200715174408 69 339 3.0 8.0 0.00 0.05 0.01 71 1016.5
20200715173907 69 329 3.0 8.0 0.00 0.05 0.01 72 1016.6
20200715173406 68 299 2.0 6.0 0.00 0.05 0.01 74 1016.6
20200715171908 67 349 0.0 5.0 0.00 0.05 0.01 75 1016.6
20200715171407 67 348 2.0 6.0 0.00 0.05 0.01 74 1016.7
20200715170904 67 0 2.0 7.0 0.00 0.05 0.01 74 1016.6
20200715170405 67 313 3.0 8.0 0.00 0.05 0.01 75 1016.5
20200715164930 66 333 1.0 5.0 0.00 0.05 0.01 79 1016.5
20200715164404 65 346 3.0 9.0 0.00 0.05 0.01 79 1016.5
20200715163908 65 304 3.0 9.0 0.00 0.05 0.01 79 1016.6
20200715163405 65 345 6.0 9.0 0.00 0.05 0.01 79 1016.5
20200715161905 65 339 6.0 12.0 0.00 0.05 0.01 80 1016.3
20200715161408 65 9 5.0 12.0 0.00 0.05 0.01 81 1016.2
20200715160907 65 17 5.0 10.0 0.00 0.05 0.01 81 1016.2
20200715160407 65 3 5.0 15.0 0.00 0.05 0.01 79 1016.1
20200715154908 67 349 7.0 16.0 0.00 0.05 0.01 76 1015.6
20200715154405 68 4 7.0 16.0 0.00 0.05 0.01 75 1015.4
20200715153904 69 352 9.0 18.0 0.00 0.05 0.01 73 1015.3
20200715153408 71 13 7.0 16.0 0.00 0.05 0.01 70 1015.1
20200715151909 74 348 3.0 9.0 0.00 0.05 0.01 50 1014.4
20200715151408 74 345 1.0 5.0 0.00 0.05 0.01 51 1014.3
20200715150906 73 355 0.0 3.0 0.00 0.05 0.01 54 1014.2
20200715150406 72 354 1.0 6.0 0.00 0.05 0.01 54 1014.0
20200715144907 70 315 0.0 3.0 0.00 0.05 0.01 58 1013.8
20200715144405 69 315 0.0 3.0 0.00 0.05 0.01 60 1013.7
20200715143904 69 315 0.0 1.0 0.00 0.05 0.01 61 1013.6
20200715143408 68 315 0.0 0.0 0.00 0.05 0.01 65 1013.4
20200715141907 67 315 0.0 3.0 0.00 0.05 0.01 72 1013.3
20200715141405 66 315 0.0 3.0 0.00 0.05 0.01 75 1013.3
20200715140904 66 314 0.0 3.0 0.00 0.05 0.01 76 1013.2
20200715140408 65 314 1.0 3.0 0.00 0.05 0.01 78 1013.0
20200715134909 62 269 0.0 6.0 0.00 0.05 0.01 84 1012.7
20200715134407 61 286 0.0 3.0 0.00 0.05 0.01 85 1012.7
20200715133906 60 287 0.0 3.0 0.00 0.05 0.01 88 1012.7
20200715133409 60 290 0.0 3.0 0.00 0.05 0.01 89 1012.8
20200715131907 58 290 0.0 3.0 0.00 0.05 0.01 94 1012.9
20200715131409 58 290 0.0 2.0 0.00 0.05 0.01 94 1012.9
20200715130908 57 290 0.0 2.0 0.00 0.05 0.01 94 1012.8
20200715130406 57 290 0.0 0.0 0.00 0.05 0.01 93 1012.6
20200715124906 57 290 0.0 0.0 0.00 0.05 0.01 93 1012.6
20200715124404 57 290 0.0 0.0 0.00 0.05 0.01 93 1012.6
20200715123905 57 290 0.0 0.0 0.00 0.05 0.01 93 1012.5
20200715123407 56 290 0.0 2.0 0.00 0.05 0.01 93 1012.5
20200715121904 56 290 0.0 0.0 0.00 0.05 0.01 93 1012.1
20200715121407 56 290 0.0 0.0 0.00 0.05 0.01 93 1011.9
20200715120907 56 290 0.0 0.0 0.00 0.05 0.01 93 1011.9
20200715120405 56 290 0.0 0.0 0.00 0.05 0.01 93 1011.9
20200715114905 57 290 0.0 0.0 0.00 0.05 0.01 93 1011.8
20200715114403 57 290 0.0 0.0 0.00 0.05 0.01 93 1011.8
20200715113907 57 290 0.0 2.0 0.00 0.05 0.01 93 1011.8
20200715113407 57 290 1.0 3.0 0.00 0.05 0.01 93 1011.7
20200715111907 57 290 0.0 3.0 0.00 0.05 0.01 93 1011.6
20200715111405 57 290 0.0 0.0 0.00 0.05 0.01 93 1011.6
20200715110904 57 290 0.0 0.0 0.00 0.05 0.01 93 1011.6
20200715110404 57 290 0.0 0.0 0.00 0.05 0.01 93 1011.7
20200715104911 57 290 0.0 0.0 0.00 0.05 0.01 93 1011.2
20200715104408 57 290 0.0 0.0 0.00 0.05 0.01 93 1011.3
20200715103907 57 290 0.0 0.0 0.00 0.05 0.01 93 1011.4
20200715103405 58 290 0.0 2.0 0.00 0.05 0.01 93 1011.3
20200715101906 58 290 0.0 2.0 0.00 0.05 0.01 92 1011.4
20200715101409 58 290 0.0 0.0 0.00 0.05 0.01 92 1011.3
20200715100905 58 290 0.0 0.0 0.00 0.05 0.01 93 1011.3
20200715100408 58 290 0.0 0.0 0.00 0.05 0.01 92 1011.4
20200715094905 58 290 0.0 1.0 0.00 0.05 0.01 92 1011.4
20200715094408 59 290 0.0 0.0 0.00 0.05 0.01 92 1011.6
20200715093907 59 290 0.0 0.0 0.00 0.05 0.01 92 1011.7
20200715093407 59 290 0.0 0.0 0.00 0.05 0.01 92 1011.7
20200715091908 59 290 0.0 0.0 0.00 0.05 0.01 92 1011.7
20200715091406 59 290 0.0 1.0 0.00 0.05 0.01 91 1011.7
20200715090905 59 290 0.0 1.0 0.00 0.05 0.01 91 1011.6
20200715090405 58 290 0.0 3.0 0.00 0.05 0.01 91 1011.5
20200715084906 59 290 0.0 2.0 0.00 0.05 0.01 90 1011.6
20200715084404 59 290 0.0 0.0 0.00 0.05 0.01 90 1011.5
20200715083908 59 290 0.0 0.0 0.00 0.05 0.01 90 1011.6
20200715083406 59 290 0.0 0.0 0.00 0.05 0.01 91 1011.6
20200715081907 59 290 0.0 0.0 0.00 0.05 0.01 89 1011.3
20200715081407 60 290 0.0 0.0 0.00 0.05 0.01 88 1011.1
20200715080905 60 290 0.0 0.0 0.00 0.05 0.01 89 1011.2
20200715080409 60 290 0.0 0.0 0.00 0.05 0.01 89 1011.2
20200715074906 61 290 0.0 0.0 0.00 0.05 0.01 89 1011.4
20200715074409 62 290 0.0 0.0 0.00 0.05 0.01 89 1011.4
20200715073907 62 290 0.0 0.0 0.00 0.05 0.01 89 1011.3
20200715073406 62 290 0.0 3.0 0.00 0.05 0.01 89 1011.2
20200715071907 63 290 0.0 2.0 0.00 0.05 0.01 90 1011.6
20200715071406 63 290 1.0 2.0 0.01 0.05 0.01 90 1011.5
20200715070904 63 290 0.0 2.0 0.01 0.05 0.01 91 1011.6
20200715070404 63 290 0.0 1.0 0.01 0.05 0.01 90 1011.7
20200715064904 63 290 0.0 0.0 0.02 0.05 0.01 90 1011.9
20200715064408 63 290 0.0 0.0 0.02 0.05 0.01 89 1011.9
20200715063906 63 290 0.0 1.0 0.02 0.05 0.01 89 1011.9
20200715063405 64 290 0.0 2.0 0.02 0.05 0.01 89 1011.8
20200715061906 64 290 0.0 0.0 0.02 0.05 0.01 87 1012.3
20200715061404 65 290 0.0 0.0 0.01 0.04 0.00 85 1012.6
20200715060904 65 290 0.0 0.0 0.01 0.04 0.00 84 1012.9
20200715060408 66 290 0.0 1.0 0.01 0.04 0.00 82 1012.9
20200715054906 67 290 1.0 2.0 0.00 0.03 0.03 77 1012.8
20200715054406 67 290 0.0 2.0 0.00 0.03 0.03 76 1012.6
20200715053905 67 290 1.0 5.0 0.00 0.03 0.03 74 1012.6
20200715053404 67 291 1.0 6.0 0.00 0.03 0.03 74 1012.6
20200715051906 67 313 2.0 6.0 0.00 0.03 0.03 73 1011.6
20200715051404 67 306 2.0 6.0 0.00 0.03 0.03 73 1011.3
20200715050906 68 286 2.0 3.0 0.00 0.03 0.03 73 1011.1
20200715050405 68 285 2.0 6.0 0.00 0.03 0.03 73 1011.1
20200715044906 68 159 0.0 0.0 0.00 0.03 0.03 73 1010.9
20200715044408 68 159 0.0 0.0 0.00 0.03 0.03 73 1010.7
20200715043908 68 159 1.0 3.0 0.00 0.03 0.03 72 1010.7
20200715043406 68 159 1.0 5.0 0.00 0.03 0.03 73 1010.6
20200715041908 69 159 0.0 2.0 0.00 0.03 0.03 72 1010.7
20200715041406 69 157 2.0 6.0 0.00 0.03 0.03 72 1010.7
20200715040905 68 146 3.0 12.0 0.00 0.03 0.03 72 1010.6
20200715040404 68 183 1.0 8.0 0.00 0.03 0.03 73 1010.8
20200715034905 69 177 3.0 12.0 0.00 0.03 0.03 71 1010.9
20200715034403 69 192 2.0 12.0 0.00 0.03 0.03 71 1011.0
20200715033906 69 163 3.0 9.0 0.00 0.03 0.03 71 1010.9
20200715033409 69 181 4.0 10.0 0.00 0.03 0.03 71 1010.9
20200715031906 68 167 6.0 12.0 0.00 0.03 0.03 75 1010.1
20200715031404 68 155 5.0 12.0 0.00 0.03 0.03 76 1010.1
20200715030903 68 168 5.0 10.0 0.00 0.03 0.03 76 1009.8
20200715030406 68 150 3.0 15.0 0.00 0.03 0.03 76 1009.5
20200715024907 68 169 6.0 15.0 0.00 0.03 0.03 76 1009.7
20200715024406 68 164 6.0 12.0 0.00 0.03 0.03 76 1009.6
20200715023904 68 171 3.0 12.0 0.00 0.03 0.03 76 1009.7
20200715023404 68 169 1.0 6.0 0.00 0.03 0.03 77 1009.9
20200715021904 68 150 1.0 5.0 0.00 0.03 0.03 77 1010.2
20200715021403 69 178 0.0 5.0 0.00 0.03 0.03 77 1010.3
20200715020906 68 190 2.0 6.0 0.00 0.03 0.03 77 1010.5
20200715020405 68 156 1.0 7.0 0.00 0.03 0.03 77 1010.7
20200715014906 68 151 1.0 5.0 0.00 0.03 0.03 78 1010.8
20200715014404 68 157 3.0 9.0 0.00 0.04 0.03 78 1010.5
20200715013909 68 162 3.0 9.0 0.01 0.04 0.03 78 1010.6
20200715013407 69 151 3.0 9.0 0.02 0.04 0.03 78 1010.3
20200715011909 69 161 2.0 7.0 0.02 0.04 0.03 77 1010.1
20200715011408 69 156 1.0 6.0 0.02 0.04 0.03 77 1010.1
20200715010907 69 162 1.0 7.0 0.02 0.04 0.03 75 1010.1
20200715010406 70 162 2.0 8.0 0.02 0.04 0.03 77 1010.0
20200715004908 71 144 1.0 7.0 0.02 0.04 0.03 75 1009.6
20200715004406 72 132 3.0 6.0 0.02 0.04 0.03 71 1009.8
20200715003906 73 80 0.0 6.0 0.01 0.03 0.02 64 1010.1
20200715003404 73 5 2.0 10.0 0.00 0.02 0.01 61 1010.6
20200715001912 75 335 3.0 8.0 0.00 0.02 0.01 55 1010.9
20200715001412 75 7 1.0 5.0 0.00 0.02 0.01 54 1010.8
20200715000908 76 146 0.0 3.0 0.00 0.02 0.01 52 1010.5
20200715000408 76 146 1.0 6.0 0.00 0.02 0.01 52 1010.2
20200714234907 76 146 2.0 6.0 0.00 0.02 0.01 51 1010.0
20200714234406 76 146 0.0 6.0 0.00 0.02 0.01 52 1010.3
20200714233909 77 144 0.0 5.0 0.00 0.02 0.01 51 1010.4
20200714233408 77 143 1.0 6.0 0.00 0.02 0.01 51 1010.4
20200714231905 77 89 0.0 5.0 0.00 0.02 0.01 54 1009.9
20200714231404 76 86 0.0 3.0 0.00 0.02 0.01 55 1009.6
20200714230907 76 85 2.0 6.0 0.00 0.02 0.01 54 1010.1
20200714230406 76 170 2.0 7.0 0.00 0.02 0.01 53 1010.4
20200714224907 76 251 1.0 3.0 0.00 0.02 0.01 50 1010.3
20200714224406 76 251 2.0 3.0 0.00 0.02 0.01 50 1010.3
20200714223905 76 251 1.0 3.0 0.00 0.02 0.01 51 1010.5
20200714223404 76 252 0.0 5.0 0.00 0.02 0.01 51 1010.4
20200714221904 75 209 0.0 1.0 0.00 0.02 0.01 56 1009.3
20200714221408 75 209 0.0 0.0 0.00 0.02 0.01 53 1009.7
20200714220907 75 209 1.0 5.0 0.00 0.02 0.01 52 1009.8
20200714220406 75 210 2.0 5.0 0.00 0.02 0.01 52 1009.9
20200714214906 75 255 1.0 3.0 0.00 0.02 0.01 51 1009.5
20200714214404 75 311 0.0 3.0 0.00 0.02 0.01 50 1009.5
20200714213909 76 313 1.0 3.0 0.00 0.02 0.01 49 1009.5
20200714213409 75 313 1.0 3.0 0.00 0.02 0.01 50 1009.7
20200714211906 75 313 0.0 0.0 0.00 0.02 0.01 53 1009.5
20200714211407 75 313 0.0 0.0 0.00 0.02 0.01 52 1009.6
20200714210906 74 313 0.0 3.0 0.00 0.02 0.01 54 1009.5
20200714210405 74 313 2.0 7.0 0.00 0.02 0.01 54 1009.3
20200714204907 74 355 3.0 7.0 0.00 0.02 0.01 54 1009.2
20200714204405 74 324 3.0 7.0 0.00 0.02 0.01 52 1009.2
20200714203910 74 322 3.0 7.0 0.01 0.02 0.01 54 1009.1
20200714203408 74 340 2.0 6.0 0.01 0.02 0.01 55 1009.0
20200714201904 72 322 1.0 5.0 0.01 0.02 0.01 60 1008.8
20200714201409 72 324 1.0 5.0 0.01 0.02 0.01 59 1008.7
20200714200906 72 342 1.0 6.0 0.01 0.02 0.01 60 1008.7
20200714200405 71 299 1.0 3.0 0.01 0.02 0.01 64 1008.7
20200714194906 72 300 1.0 3.0 0.01 0.02 0.01 66 1008.8
20200714194404 72 300 2.0 3.0 0.01 0.02 0.01 57 1008.8
20200714193908 73 299 3.0 5.0 0.00 0.01 0.00 53 1009.1